Las Vegas, Nevada
Traffic Map
Current Weather Conditions
Las Vegas, Nevada
Few Clouds
Few Clouds
37°
Feels Like: 37°
Wind Chill: 37° Ceiling: Unl
Heat Index: 37° Visibility: 10mi
Dew Point: -7° Wind: 10mph
Humidity: 6% Direction: 80° (E)
Pressure: 29.81in Gusts: 0mph
Raw Report DataKLAS 240156Z 08009KT 10SM FEW250 37/M07 A2981 RMK AO2 SLP066 T03671072
Traffic Incident Summary
Active as of:
Severity:
Category:
InformationThere was an issue retrieving the traffic information for this location. Please try a different location or try again shortly.
Advertisements
Track Severe Weather on mobile